Time;durP1;ratioP1;P1;durP2;ratioP2;P2;SDS_P1;SDS_P2;PMS_P1;PMS_P2;Temp;Humidity;BMP_temperature;BMP_pressure;BME280_temperature;BME280_humidity;BME280_pressure;Samples;Min_cycle;Max_cycle;Signal;HPM_P1;HPM_P2
2022/06/06 00:02:17;;;;;;;;;;;12.70;99.90;;;;;;4950234;28;19945;-88
2022/06/06 00:04:45;;;;;;;;;;;12.60;99.90;;;;;;4934872;28;19937;-88
2022/06/06 00:07:13;;;;;;;;;;;12.70;99.90;;;;;;4950419;28;19926;-88
2022/06/06 00:09:40;;;;;;;;;;;12.70;99.90;;;;;;4940921;28;19926;-88
2022/06/06 00:12:08;;;;;;;;;;;12.10;99.90;;;;;;4951554;28;19961;-88
2022/06/06 00:14:35;;;;;;;;;;;12.70;99.90;;;;;;4954314;28;19953;-88
2022/06/06 00:17:05;;;;;;;;;;;12.60;99.90;;;;;;4938592;28;19937;-89
2022/06/06 00:19:32;;;;;;;;;;;12.60;99.90;;;;;;4946599;29;19930;-88
2022/06/06 00:22:00;;;;;;;;;;;12.60;99.90;;;;;;4983763;28;20412;-88
2022/06/06 00:24:29;;;;;;;;;;;12.70;99.90;;;;;;4953915;28;19930;-89
2022/06/06 00:26:57;;;;;;;;;;;12.70;99.90;;;;;;4938764;28;19930;-89
2022/06/06 00:29:25;;;;;;;;;;;12.60;99.90;;;;;;4953642;28;19930;-89
2022/06/06 00:34:54;;;;;;;;;;;12.70;99.90;;;;;;4952267;28;19930;-88
2022/06/06 00:37:24;;;;;;;;;;;12.60;99.90;;;;;;4953174;28;19926;-89
2022/06/06 00:39:52;;;;;;;;;;;12.50;99.90;;;;;;4954024;28;19933;-89
2022/06/06 00:42:25;;;;;;;;;;;12.70;99.90;;;;;;4952357;28;20337;-89
2022/06/06 00:45:11;;;;;;;;;;;12.60;99.90;;;;;;4938825;28;20562;-89
2022/06/06 00:47:39;;;;;;;;;;;12.60;99.90;;;;;;4953099;28;19933;-89
2022/06/06 00:50:14;;;;;;;;;;;12.70;99.90;;;;;;4954379;28;19926;-89
2022/06/06 00:52:43;;;;;;;;;;;12.70;99.90;;;;;;4949414;28;19930;-89
2022/06/06 00:55:15;;;;;;;;;;;12.70;99.90;;;;;;4969521;28;19937;-89
2022/06/06 00:57:48;;;;;;;;;;;12.70;99.90;;;;;;4953251;28;19930;-88
2022/06/06 01:00:18;;;;;;;;;;;12.70;99.90;;;;;;4952795;28;19941;-88
2022/06/06 01:02:48;;;;;;;;;;;12.60;99.90;;;;;;4951622;28;19938;-89
2022/06/06 01:05:16;;;;;;;;;;;12.60;99.90;;;;;;4953384;28;19926;-89
2022/06/06 01:07:44;;;;;;;;;;;12.60;99.90;;;;;;4955169;28;20380;-88
2022/06/06 01:10:12;;;;;;;;;;;12.60;99.90;;;;;;4952646;28;20285;-89
2022/06/06 01:12:40;;;;;;;;;;;12.50;99.90;;;;;;4968947;28;19930;-89
2022/06/06 01:15:09;;;;;;;;;;;12.50;99.90;;;;;;4953383;28;19926;-89
2022/06/06 01:17:40;;;;;;;;;;;11.50;99.90;;;;;;4968193;28;19930;-88
2022/06/06 01:20:12;;;;;;;;;;;12.50;99.90;;;;;;4967473;28;19942;-88
2022/06/06 01:22:49;;;;;;;;;;;12.50;99.90;;;;;;4951230;28;19930;-89
2022/06/06 01:25:28;;;;;;;;;;;12.50;99.90;;;;;;4951977;28;19937;-89
2022/06/06 01:27:58;;;;;;;;;;;12.50;99.90;;;;;;4952539;28;19926;-88
2022/06/06 01:30:29;;;;;;;;;;;12.50;99.90;;;;;;4955534;28;19926;-88
2022/06/06 01:32:57;;;;;;;;;;;12.50;99.90;;;;;;4964506;28;19926;-89
2022/06/06 01:35:33;;;;;;;;;;;12.50;99.90;;;;;;4963035;28;19937;-89
2022/06/06 01:38:01;;;;;;;;;;;12.60;99.90;;;;;;4976335;28;20270;-89
2022/06/06 01:40:37;;;;;;;;;;;12.60;99.90;;;;;;4969269;28;19930;-89
2022/06/06 01:43:08;;;;;;;;;;;12.60;99.90;;;;;;4977313;28;19927;-88
2022/06/06 01:45:45;;;;;;;;;;;12.60;99.90;;;;;;4965130;28;19937;-88
2022/06/06 01:48:15;;;;;;;;;;;12.70;99.90;;;;;;4980716;28;19910;-88
2022/06/06 01:50:43;;;;;;;;;;;12.70;99.90;;;;;;4969716;28;19926;-88
2022/06/06 01:53:16;;;;;;;;;;;12.70;99.90;;;;;;4941429;28;19937;-88
2022/06/06 01:55:44;;;;;;;;;;;12.80;99.90;;;;;;4957235;28;21585;-89
2022/06/06 01:58:15;;;;;;;;;;;12.80;99.90;;;;;;4964936;28;19926;-89
2022/06/06 02:00:42;;;;;;;;;;;12.90;99.90;;;;;;4957580;28;19926;-89
2022/06/06 02:03:10;;;;;;;;;;;12.80;99.90;;;;;;4954566;28;19927;-89
2022/06/06 02:05:38;;;;;;;;;;;12.80;99.90;;;;;;4985228;28;19927;-89
2022/06/06 02:08:06;;;;;;;;;;;12.80;99.90;;;;;;4938752;29;19930;-89
2022/06/06 02:10:34;;;;;;;;;;;12.90;99.90;;;;;;4952563;28;19938;-89
2022/06/06 02:13:02;;;;;;;;;;;13.60;99.90;;;;;;4952053;28;19927;-89
2022/06/06 02:15:30;;;;;;;;;;;12.90;99.90;;;;;;4953665;29;19931;-89
2022/06/06 02:17:57;;;;;;;;;;;12.90;99.90;;;;;;4939137;28;19930;-88
2022/06/06 02:20:26;;;;;;;;;;;13.10;99.90;;;;;;4955909;28;19930;-88
2022/06/06 02:22:54;;;;;;;;;;;13.40;99.90;;;;;;4972794;28;19951;-89
2022/06/06 02:25:22;;;;;;;;;;;12.90;99.90;;;;;;4964157;28;19926;-89
2022/06/06 02:27:50;;;;;;;;;;;11.80;99.90;;;;;;4961847;28;19930;-88
2022/06/06 02:30:19;;;;;;;;;;;13.00;99.90;;;;;;4955147;28;20319;-89
2022/06/06 02:32:47;;;;;;;;;;;13.00;99.90;;;;;;4943435;28;20330;-89
2022/06/06 02:35:17;;;;;;;;;;;13.10;99.90;;;;;;4956626;28;19930;-89
2022/06/06 02:37:46;;;;;;;;;;;13.00;99.90;;;;;;4956983;28;19942;-89
2022/06/06 02:40:15;;;;;;;;;;;13.10;99.90;;;;;;4941258;28;20290;-89
2022/06/06 02:42:43;;;;;;;;;;;13.10;99.90;;;;;;4955900;28;20393;-89
2022/06/06 02:45:12;;;;;;;;;;;13.10;99.90;;;;;;4940143;28;19926;-89
2022/06/06 02:47:40;;;;;;;;;;;12.60;99.90;;;;;;4963915;28;20444;-89
2022/06/06 02:50:08;;;;;;;;;;;13.10;99.90;;;;;;4953965;28;19926;-88
2022/06/06 02:52:36;;;;;;;;;;;13.20;99.90;;;;;;4969864;28;19926;-89
2022/06/06 02:55:05;;;;;;;;;;;13.20;99.90;;;;;;4969258;28;19933;-89
2022/06/06 02:57:37;;;;;;;;;;;13.20;99.90;;;;;;4953723;28;19949;-89
2022/06/06 03:00:06;;;;;;;;;;;13.30;99.90;;;;;;4937373;28;20589;-88
2022/06/06 03:02:35;;;;;;;;;;;13.20;99.90;;;;;;4950475;28;19942;-89
2022/06/06 03:05:03;;;;;;;;;;;13.20;99.90;;;;;;4950559;28;19948;-89
2022/06/06 03:07:40;;;;;;;;;;;13.20;99.90;;;;;;4968588;28;19926;-89
2022/06/06 03:10:31;;;;;;;;;;;13.20;99.90;;;;;;4967758;28;19926;-88
2022/06/06 03:13:02;;;;;;;;;;;12.30;99.90;;;;;;4950651;28;19926;-89
2022/06/06 03:15:29;;;;;;;;;;;13.20;99.90;;;;;;4952053;28;20301;-89
2022/06/06 03:21:02;;;;;;;;;;;13.50;99.90;;;;;;4968754;28;19930;-88
2022/06/06 03:23:39;;;;;;;;;;;13.20;99.90;;;;;;4952725;28;19937;-89
2022/06/06 03:26:28;;;;;;;;;;;12.60;99.90;;;;;;4954474;28;19926;-89
2022/06/06 03:29:22;;;;;;;;;;;13.20;99.90;;;;;;4961648;28;19933;-89
2022/06/06 03:31:53;;;;;;;;;;;13.20;99.90;;;;;;4961177;28;20706;-89
2022/06/06 03:34:25;;;;;;;;;;;13.20;99.90;;;;;;4947530;28;19926;-88
2022/06/06 03:37:01;;;;;;;;;;;14.00;99.90;;;;;;4978824;28;19926;-89
2022/06/06 03:39:37;;;;;;;;;;;13.20;99.90;;;;;;4959009;28;19946;-89
2022/06/06 03:42:20;;;;;;;;;;;13.20;99.90;;;;;;4598048;28;10000117;-88
2022/06/06 03:44:54;;;;;;;;;;;13.20;99.90;;;;;;4957626;28;19926;-89
2022/06/06 03:47:43;;;;;;;;;;;13.20;99.90;;;;;;4958690;28;19926;-89
2022/06/06 03:50:34;;;;;;;;;;;13.30;99.90;;;;;;4962232;28;19933;-89
2022/06/06 03:53:01;;;;;;;;;;;13.30;99.90;;;;;;4964612;28;19934;-89
2022/06/06 03:55:32;;;;;;;;;;;13.30;99.90;;;;;;4953631;28;19926;-88
2022/06/06 03:58:00;;;;;;;;;;;13.30;99.90;;;;;;4953681;28;20390;-88
2022/06/06 04:00:28;;;;;;;;;;;13.30;99.90;;;;;;4937858;28;19934;-89
2022/06/06 04:02:56;;;;;;;;;;;13.30;99.90;;;;;;4950164;29;19933;-88
2022/06/06 04:05:23;;;;;;;;;;;13.30;99.90;;;;;;4949179;28;19937;-88
2022/06/06 04:07:51;;;;;;;;;;;13.30;99.90;;;;;;4953320;28;20521;-89
2022/06/06 04:10:22;;;;;;;;;;;13.30;99.90;;;;;;4952753;28;19930;-89
2022/06/06 04:13:01;;;;;;;;;;;11.60;99.90;;;;;;4936427;28;19927;-89
2022/06/06 04:15:32;;;;;;;;;;;13.10;99.90;;;;;;4952232;28;19930;-89
2022/06/06 04:18:05;;;;;;;;;;;13.40;99.90;;;;;;4953685;28;19937;-89
2022/06/06 04:20:38;;;;;;;;;;;13.40;99.90;;;;;;4944504;28;19926;-89
2022/06/06 04:23:10;;;;;;;;;;;13.30;99.90;;;;;;4953385;28;19933;-88
2022/06/06 04:25:59;;;;;;;;;;;13.40;99.90;;;;;;4952590;28;19933;-89
2022/06/06 04:28:41;;;;;;;;;;;12.80;99.90;;;;;;4968824;28;19930;-88
2022/06/06 04:31:17;;;;;;;;;;;13.40;99.90;;;;;;4969095;28;20283;-89
2022/06/06 04:33:50;;;;;;;;;;;13.00;99.90;;;;;;4952679;28;19941;-89
2022/06/06 04:36:26;;;;;;;;;;;13.40;99.90;;;;;;4967800;28;20398;-89
2022/06/06 04:39:17;;;;;;;;;;;13.40;99.90;;;;;;4952617;28;19926;-89
2022/06/06 04:41:55;;;;;;;;;;;13.30;99.90;;;;;;4949783;28;19930;-89
2022/06/06 04:44:31;;;;;;;;;;;13.00;99.90;;;;;;4967728;28;19934;-89
2022/06/06 04:47:08;;;;;;;;;;;13.50;99.90;;;;;;4952444;28;19948;-89
2022/06/06 04:49:36;;;;;;;;;;;13.40;99.90;;;;;;4964120;28;19930;-89
2022/06/06 04:52:05;;;;;;;;;;;13.50;99.90;;;;;;4933636;28;19926;-89
2022/06/06 04:54:33;;;;;;;;;;;13.50;99.90;;;;;;4949603;28;19926;-88
2022/06/06 04:57:03;;;;;;;;;;;13.50;99.90;;;;;;4966721;28;20290;-89
2022/06/06 04:59:30;;;;;;;;;;;12.30;99.90;;;;;;4969383;28;19930;-89
2022/06/06 05:01:59;;;;;;;;;;;13.60;99.90;;;;;;4953514;28;19937;-90
2022/06/06 05:04:26;;;;;;;;;;;13.50;99.90;;;;;;4934622;29;19934;-89
2022/06/06 05:07:21;;;;;;;;;;;13.60;99.90;;;;;;4940684;28;19937;-90
2022/06/06 05:10:07;;;;;;;;;;;13.50;99.90;;;;;;4969665;28;19926;-89
2022/06/06 05:12:53;;;;;;;;;;;13.60;99.90;;;;;;4953447;28;19937;-89
2022/06/06 05:15:38;;;;;;;;;;;12.90;99.90;;;;;;4922302;29;19941;-88
2022/06/06 05:18:31;;;;;;;;;;;13.60;99.90;;;;;;4952835;28;19941;-88
2022/06/06 05:21:31;;;;;;;;;;;13.40;99.90;;;;;;4962609;28;19930;-89
2022/06/06 05:24:06;;;;;;;;;;;13.60;99.90;;;;;;4956130;28;19921;-89
2022/06/06 05:26:48;;;;;;;;;;;15.50;99.90;;;;;;4955975;28;19926;-89
2022/06/06 05:29:16;;;;;;;;;;;13.50;99.90;;;;;;4957834;28;20294;-89
2022/06/06 05:32:02;;;;;;;;;;;13.50;99.90;;;;;;4959542;28;19934;-89
2022/06/06 05:34:34;;;;;;;;;;;13.60;99.90;;;;;;4963890;28;19930;-88
2022/06/06 05:37:17;;;;;;;;;;;13.60;99.90;;;;;;5002057;28;19940;-88
2022/06/06 05:39:48;;;;;;;;;;;13.50;99.90;;;;;;4982040;28;19930;-89
2022/06/06 05:42:22;;;;;;;;;;;13.50;99.90;;;;;;4955098;28;19930;-89
2022/06/06 05:45:07;;;;;;;;;;;13.60;99.90;;;;;;4593139;29;10001421;-89
2022/06/06 05:47:36;;;;;;;;;;;13.60;99.90;;;;;;4967060;28;20335;-89
2022/06/06 05:50:14;;;;;;;;;;;13.60;99.90;;;;;;4938954;28;19933;-89
2022/06/06 05:52:41;;;;;;;;;;;13.60;99.90;;;;;;4954936;28;19930;-89
2022/06/06 05:55:12;;;;;;;;;;;13.60;99.90;;;;;;4970580;28;19938;-88
2022/06/06 05:57:40;;;;;;;;;;;13.70;99.90;;;;;;4954625;28;19930;-89
2022/06/06 06:00:11;;;;;;;;;;;13.50;99.90;;;;;;4957027;28;19926;-88
2022/06/06 06:02:51;;;;;;;;;;;13.90;99.90;;;;;;4951323;28;19931;-88
2022/06/06 06:05:34;;;;;;;;;;;13.60;99.90;;;;;;4954521;28;20494;-88
2022/06/06 06:08:06;;;;;;;;;;;13.60;99.90;;;;;;4950794;28;19937;-87
2022/06/06 06:10:59;;;;;;;;;;;13.60;99.90;;;;;;4954512;28;19926;-88
2022/06/06 06:13:33;;;;;;;;;;;13.60;99.90;;;;;;4953534;28;19926;-88
2022/06/06 06:16:04;;;;;;;;;;;13.60;99.90;;;;;;4949303;28;19933;-88
2022/06/06 06:18:36;;;;;;;;;;;13.60;99.90;;;;;;4969455;28;20528;-88
2022/06/06 06:21:04;;;;;;;;;;;13.60;99.90;;;;;;4949363;28;19926;-88
2022/06/06 06:23:33;;;;;;;;;;;13.60;99.90;;;;;;4957706;28;20087;-88
2022/06/06 06:26:03;;;;;;;;;;;13.60;99.90;;;;;;4947390;28;19930;-88
2022/06/06 06:28:36;;;;;;;;;;;13.60;99.90;;;;;;4964757;28;20382;-87
2022/06/06 06:31:06;;;;;;;;;;;14.30;99.90;;;;;;4933361;28;19926;-87
2022/06/06 06:33:53;;;;;;;;;;;13.50;99.90;;;;;;4967289;28;19926;-88
2022/06/06 06:36:39;;;;;;;;;;;13.50;99.90;;;;;;4951139;28;19930;-88
2022/06/06 06:39:07;;;;;;;;;;;13.50;99.90;;;;;;4953104;28;19931;-88
2022/06/06 06:42:14;;;;;;;;;;;13.50;99.90;;;;;;4969980;28;20301;-87
2022/06/06 06:44:47;;;;;;;;;;;13.40;99.90;;;;;;4964152;28;19937;-86
2022/06/06 06:47:21;;;;;;;;;;;13.30;99.90;;;;;;4964842;28;19940;-87
2022/06/06 06:49:55;;;;;;;;;;;13.40;99.90;;;;;;4972006;28;20594;-87
2022/06/06 06:52:33;;;;;;;;;;;13.40;99.90;;;;;;4947999;28;20266;-87
2022/06/06 06:55:22;;;;;;;;;;;13.30;99.90;;;;;;4964506;28;19934;-88
2022/06/06 06:58:10;;;;;;;;;;;12.70;99.90;;;;;;4964643;28;19926;-87
2022/06/06 07:00:41;;;;;;;;;;;13.30;99.90;;;;;;4965032;28;19926;-88
2022/06/06 07:09:27;;;;;;;;;;;13.40;99.90;;;;;;4966397;28;19930;-87
2022/06/06 07:12:01;;;;;;;;;;;13.30;99.90;;;;;;4981388;28;19930;-87
2022/06/06 07:14:28;;;;;;;;;;;13.30;99.90;;;;;;4986215;28;19921;-87
2022/06/06 07:16:57;;;;;;;;;;;13.20;99.90;;;;;;4970276;28;19933;-87
2022/06/06 07:19:37;;;;;;;;;;;13.20;99.90;;;;;;4985378;28;19926;-87
2022/06/06 07:22:06;;;;;;;;;;;13.20;99.90;;;;;;4965300;28;19937;-89
2022/06/06 07:24:34;;;;;;;;;;;13.30;99.90;;;;;;4968242;28;19930;-87
2022/06/06 07:27:02;;;;;;;;;;;13.30;99.90;;;;;;4966918;28;19937;-87
2022/06/06 07:29:30;;;;;;;;;;;13.30;99.90;;;;;;4968077;28;19934;-87
2022/06/06 07:32:04;;;;;;;;;;;13.40;99.90;;;;;;4952467;28;19926;-88
2022/06/06 07:34:44;;;;;;;;;;;13.40;99.90;;;;;;4980159;28;20433;-87
2022/06/06 07:37:25;;;;;;;;;;;13.40;99.90;;;;;;4945874;28;19937;-87
2022/06/06 07:39:55;;;;;;;;;;;13.50;99.90;;;;;;4965378;28;19930;-87
2022/06/06 07:42:23;;;;;;;;;;;13.60;99.90;;;;;;4964650;28;19956;-88
2022/06/06 07:44:54;;;;;;;;;;;13.50;99.90;;;;;;4966732;28;19927;-88
2022/06/06 07:48:00;;;;;;;;;;;13.50;99.90;;;;;;4967284;28;20461;-87
2022/06/06 07:50:44;;;;;;;;;;;13.60;99.90;;;;;;4909877;29;19957;-87
2022/06/06 07:53:14;;;;;;;;;;;13.70;99.90;;;;;;4920916;29;20343;-88
2022/06/06 07:55:55;;;;;;;;;;;14.90;99.90;;;;;;4935906;28;19933;-87
2022/06/06 07:58:27;;;;;;;;;;;13.70;99.90;;;;;;4970491;28;20444;-88
2022/06/06 08:01:08;;;;;;;;;;;13.80;99.90;;;;;;4949926;28;19938;-87
2022/06/06 08:03:48;;;;;;;;;;;13.80;99.90;;;;;;4978573;28;20036;-87
2022/06/06 08:06:16;;;;;;;;;;;13.70;99.90;;;;;;4946329;28;19927;-88
2022/06/06 08:09:07;;;;;;;;;;;13.80;99.90;;;;;;4948942;28;20438;-88
2022/06/06 08:12:01;;;;;;;;;;;13.50;99.90;;;;;;4935814;28;19927;-87
2022/06/06 08:14:46;;;;;;;;;;;14.00;99.90;;;;;;4970139;28;19933;-87
2022/06/06 08:17:19;;;;;;;;;;;13.00;99.90;;;;;;4972983;28;19926;-87
2022/06/06 08:19:58;;;;;;;;;;;13.90;99.90;;;;;;4963727;28;19933;-87
2022/06/06 08:22:26;;;;;;;;;;;13.20;99.90;;;;;;4947802;28;19926;-88
2022/06/06 08:24:56;;;;;;;;;;;13.20;99.90;;;;;;4947679;28;19930;-88
2022/06/06 08:27:33;;;;;;;;;;;13.90;99.90;;;;;;4965830;28;19926;-87
2022/06/06 08:30:00;;;;;;;;;;;13.90;99.90;;;;;;4962481;28;19930;-87
2022/06/06 08:32:29;;;;;;;;;;;13.90;99.90;;;;;;4950857;28;20357;-87
2022/06/06 08:34:57;;;;;;;;;;;13.90;99.90;;;;;;4965076;28;19934;-87
2022/06/06 08:37:39;;;;;;;;;;;13.90;99.90;;;;;;4937904;28;19930;-88
2022/06/06 08:40:10;;;;;;;;;;;13.90;99.90;;;;;;4947975;28;21101;-89
2022/06/06 08:42:56;;;;;;;;;;;14.10;99.90;;;;;;4965988;28;19934;-87
2022/06/06 08:45:27;;;;;;;;;;;14.10;99.90;;;;;;4950518;28;19925;-88
2022/06/06 08:48:13;;;;;;;;;;;14.20;99.90;;;;;;4950171;28;20306;-88
2022/06/06 08:50:57;;;;;;;;;;;14.30;99.90;;;;;;4949119;28;19934;-89
2022/06/06 08:53:41;;;;;;;;;;;14.40;99.90;;;;;;4951517;28;19930;-88
2022/06/06 08:56:28;;;;;;;;;;;14.50;99.90;;;;;;4952025;28;20256;-88
2022/06/06 08:59:15;;;;;;;;;;;14.60;99.90;;;;;;4951100;28;19926;-90
2022/06/06 09:01:43;;;;;;;;;;;14.60;99.90;;;;;;4966611;28;20802;-89
2022/06/06 09:04:31;;;;;;;;;;;15.10;99.90;;;;;;4952429;28;20195;-89
2022/06/06 09:07:05;;;;;;;;;;;15.80;99.90;;;;;;4967605;28;19930;-89
2022/06/06 09:09:51;;;;;;;;;;;14.60;99.90;;;;;;4965839;28;19926;-89
2022/06/06 09:12:19;;;;;;;;;;;14.60;99.90;;;;;;4967400;28;20402;-89
2022/06/06 09:15:01;;;;;;;;;;;14.80;99.90;;;;;;4967519;28;19930;-88
2022/06/06 09:17:42;;;;;;;;;;;14.60;99.90;;;;;;4982691;28;19934;-87
2022/06/06 09:20:20;;;;;;;;;;;14.80;99.90;;;;;;4966740;28;19930;-89
2022/06/06 09:23:14;;;;;;;;;;;14.80;99.90;;;;;;4964481;28;19930;-88
2022/06/06 09:25:55;;;;;;;;;;;14.90;99.90;;;;;;4984487;28;19926;-88
2022/06/06 09:28:34;;;;;;;;;;;15.50;99.90;;;;;;4968936;28;19933;-88
2022/06/06 09:31:05;;;;;;;;;;;14.90;99.90;;;;;;4950880;28;20267;-88
2022/06/06 09:33:42;;;;;;;;;;;14.90;99.90;;;;;;4968455;28;19933;-88
2022/06/06 09:36:38;;;;;;;;;;;14.80;99.90;;;;;;4973959;28;19934;-87
2022/06/06 09:39:29;;;;;;;;;;;14.80;99.90;;;;;;4964379;28;19961;-89
2022/06/06 09:42:16;;;;;;;;;;;14.80;99.90;;;;;;4961033;28;19941;-90
2022/06/06 09:44:44;;;;;;;;;;;14.80;99.90;;;;;;4953157;28;19934;-89
2022/06/06 09:47:26;;;;;;;;;;;14.90;99.90;;;;;;4980113;28;19927;-88
2022/06/06 09:49:58;;;;;;;;;;;14.90;99.90;;;;;;4969317;28;19941;-89
2022/06/06 09:52:35;;;;;;;;;;;15.00;99.90;;;;;;4953557;28;19938;-90
2022/06/06 10:00:54;;;;;;;;;;;15.10;99.90;;;;;;4951826;28;21093;-88
2022/06/06 10:03:24;;;;;;;;;;;15.20;99.90;;;;;;4936095;28;20368;-87
2022/06/06 10:06:06;;;;;;;;;;;15.20;99.90;;;;;;4960486;28;19938;-88
2022/06/06 10:08:36;;;;;;;;;;;14.60;99.90;;;;;;4977595;28;19926;-87
2022/06/06 10:11:07;;;;;;;;;;;15.20;99.90;;;;;;4981671;28;19933;-89
2022/06/06 10:13:41;;;;;;;;;;;15.20;99.90;;;;;;4963343;28;19926;-88
2022/06/06 10:16:26;;;;;;;;;;;15.20;99.90;;;;;;4974937;28;19937;-88
2022/06/06 10:18:57;;;;;;;;;;;15.30;99.90;;;;;;4981962;28;19941;-88
2022/06/06 10:21:36;;;;;;;;;;;15.30;99.90;;;;;;4976928;28;20515;-88
2022/06/06 10:24:19;;;;;;;;;;;15.40;99.90;;;;;;4966313;28;19934;-87
2022/06/06 10:27:08;;;;;;;;;;;15.40;99.90;;;;;;4972084;28;19930;-89
2022/06/06 10:32:43;;;;;;;;;;;15.40;99.90;;;;;;4955404;28;19930;-91
2022/06/06 10:35:29;;;;;;;;;;;15.40;99.90;;;;;;4624274;28;9999636;-89
2022/06/06 10:37:59;;;;;;;;;;;15.40;99.90;;;;;;4952254;28;19940;-88
2022/06/06 10:40:50;;;;;;;;;;;15.30;99.90;;;;;;4953645;28;20333;-89
2022/06/06 10:43:39;;;;;;;;;;;15.30;99.90;;;;;;4965768;28;21627;-89
2022/06/06 10:46:10;;;;;;;;;;;15.30;99.90;;;;;;4984531;28;19934;-89
2022/06/06 10:48:45;;;;;;;;;;;15.30;99.90;;;;;;4969260;28;19933;-88
2022/06/06 10:51:37;;;;;;;;;;;15.40;99.90;;;;;;4953588;28;20691;-88
2022/06/06 10:54:22;;;;;;;;;;;15.40;99.90;;;;;;4954039;28;20718;-89
2022/06/06 10:57:13;;;;;;;;;;;15.50;99.90;;;;;;4953277;28;20654;-89
2022/06/06 11:00:05;;;;;;;;;;;15.50;99.90;;;;;;4965056;28;19926;-89
2022/06/06 11:02:33;;;;;;;;;;;15.50;99.90;;;;;;4972718;28;19957;-89
2022/06/06 11:05:20;;;;;;;;;;;15.60;99.90;;;;;;4963904;28;19926;-89
2022/06/06 11:08:07;;;;;;;;;;;15.60;99.90;;;;;;4948055;28;19933;-88
2022/06/06 11:10:57;;;;;;;;;;;15.70;99.90;;;;;;4981555;28;19937;-88
2022/06/06 11:13:27;;;;;;;;;;;15.80;99.90;;;;;;4968156;28;19934;-88
2022/06/06 11:16:16;;;;;;;;;;;15.80;99.90;;;;;;4968369;28;19933;-88
2022/06/06 11:18:51;;;;;;;;;;;15.90;99.90;;;;;;4952011;28;19936;-89
2022/06/06 11:21:19;;;;;;;;;;;15.90;99.90;;;;;;4968703;28;19929;-89
2022/06/06 11:23:53;;;;;;;;;;;16.00;99.90;;;;;;4984488;28;19926;-88
2022/06/06 11:26:23;;;;;;;;;;;16.00;99.90;;;;;;4968524;28;20531;-88
2022/06/06 11:29:00;;;;;;;;;;;16.00;99.90;;;;;;4936068;28;19930;-89
2022/06/06 11:31:37;;;;;;;;;;;16.00;99.90;;;;;;4952101;28;19945;-88
2022/06/06 11:34:10;;;;;;;;;;;15.30;99.90;;;;;;4949643;28;19930;-90
2022/06/06 11:36:38;;;;;;;;;;;16.10;99.90;;;;;;4968834;28;19933;-88
2022/06/06 11:39:24;;;;;;;;;;;16.00;99.90;;;;;;4950517;28;19956;-88
2022/06/06 11:42:03;;;;;;;;;;;16.00;99.90;;;;;;4970193;28;20400;-88
2022/06/06 11:44:50;;;;;;;;;;;16.00;99.90;;;;;;4955791;28;19930;-88
2022/06/06 11:48:04;;;;;;;;;;;16.00;99.90;;;;;;4956888;28;19926;-89
2022/06/06 11:50:50;;;;;;;;;;;16.00;99.90;;;;;;4955393;28;19926;-90
2022/06/06 11:53:44;;;;;;;;;;;16.00;99.90;;;;;;4954975;28;19930;-90
2022/06/06 11:56:35;;;;;;;;;;;16.00;99.90;;;;;;4966039;28;19933;-89
2022/06/06 11:59:18;;;;;;;;;;;15.70;99.90;;;;;;4953430;28;19933;-89
2022/06/06 12:01:58;;;;;;;;;;;16.20;99.90;;;;;;4988549;28;19933;-87
2022/06/06 12:04:30;;;;;;;;;;;15.20;99.90;;;;;;4984367;28;19945;-89
2022/06/06 12:07:04;;;;;;;;;;;16.30;99.90;;;;;;4972120;28;19930;-89
2022/06/06 12:09:56;;;;;;;;;;;16.40;99.90;;;;;;4951008;28;20029;-89
2022/06/06 12:12:35;;;;;;;;;;;16.50;99.90;;;;;;4981299;28;19937;-89
2022/06/06 12:15:08;;;;;;;;;;;16.60;99.90;;;;;;4948299;28;20350;-89
2022/06/06 12:18:12;;;;;;;;;;;16.60;99.90;;;;;;4963279;28;19936;-89
2022/06/06 12:20:58;;;;;;;;;;;14.90;99.90;;;;;;4898215;29;20066;-90
2022/06/06 12:23:51;;;;;;;;;;;16.80;99.90;;;;;;4971403;28;19934;-89
2022/06/06 12:26:41;;;;;;;;;;;16.70;99.90;;;;;;4951592;28;19925;-90
2022/06/06 12:29:28;;;;;;;;;;;16.70;99.90;;;;;;4969233;28;19930;-89
2022/06/06 12:32:09;;;;;;;;;;;16.70;99.90;;;;;;4958646;28;19930;-89
2022/06/06 12:34:44;;;;;;;;;;;16.70;99.90;;;;;;4951423;28;19934;-90
2022/06/06 12:37:16;;;;;;;;;;;16.70;99.90;;;;;;4967945;28;19949;-90
2022/06/06 12:40:05;;;;;;;;;;;16.70;99.90;;;;;;4967858;28;19926;-89
2022/06/06 12:42:49;;;;;;;;;;;16.70;99.90;;;;;;4967264;28;19933;-89
2022/06/06 12:45:36;;;;;;;;;;;16.60;99.90;;;;;;4933648;28;19930;-90
2022/06/06 12:48:27;;;;;;;;;;;16.70;99.90;;;;;;4961952;28;19926;-90
2022/06/06 12:51:17;;;;;;;;;;;16.70;99.90;;;;;;4982809;28;19934;-89
2022/06/06 12:53:45;;;;;;;;;;;16.80;99.90;;;;;;4970988;28;19941;-91
2022/06/06 12:56:25;;;;;;;;;;;17.00;99.90;;;;;;4965218;28;19930;-89
2022/06/06 12:58:59;;;;;;;;;;;16.90;99.90;;;;;;4952662;28;19926;-89
2022/06/06 13:01:45;;;;;;;;;;;17.30;99.90;;;;;;4942285;28;19930;-91
2022/06/06 13:04:13;;;;;;;;;;;17.30;99.90;;;;;;4967024;28;19937;-90
2022/06/06 13:06:44;;;;;;;;;;;17.40;99.90;;;;;;4967113;28;19927;-90
2022/06/06 13:09:37;;;;;;;;;;;17.40;99.90;;;;;;4940288;28;19926;-90
2022/06/06 13:12:05;;;;;;;;;;;17.50;99.90;;;;;;4960482;28;19930;-89
2022/06/06 13:14:55;;;;;;;;;;;17.70;99.90;;;;;;4979159;28;20309;-89
2022/06/06 13:17:27;;;;;;;;;;;17.60;99.90;;;;;;4979284;28;19945;-90
2022/06/06 13:20:00;;;;;;;;;;;17.60;99.90;;;;;;4975907;28;19927;-91
2022/06/06 13:22:35;;;;;;;;;;;17.50;99.90;;;;;;4977499;28;19941;-91
2022/06/06 13:25:03;;;;;;;;;;;17.50;99.90;;;;;;4960460;28;19927;-90
2022/06/06 13:27:56;;;;;;;;;;;17.70;99.90;;;;;;4971904;28;19945;-91
2022/06/06 13:30:30;;;;;;;;;;;18.00;99.90;;;;;;4978148;28;19930;-91
2022/06/06 13:33:43;;;;;;;;;;;17.50;99.90;;;;;;4971787;28;19944;-89
2022/06/06 13:36:29;;;;;;;;;;;17.50;99.90;;;;;;4957127;28;19945;-92
2022/06/06 13:39:09;;;;;;;;;;;17.50;99.90;;;;;;4972166;28;20168;-91
2022/06/06 13:41:43;;;;;;;;;;;17.60;99.90;;;;;;4970370;28;19934;-91
2022/06/06 13:44:20;;;;;;;;;;;18.20;99.90;;;;;;4978428;28;19922;-92
2022/06/06 13:46:59;;;;;;;;;;;17.60;99.90;;;;;;4972520;28;19927;-91
2022/06/06 13:49:37;;;;;;;;;;;17.60;99.90;;;;;;4981855;28;19930;-90
2022/06/06 13:52:14;;;;;;;;;;;17.60;99.90;;;;;;4981779;28;19926;-92
2022/06/06 13:54:42;;;;;;;;;;;17.70;99.90;;;;;;4963131;28;19926;-91
2022/06/06 13:57:48;;;;;;;;;;;17.70;99.90;;;;;;4978221;28;20345;-91
2022/06/06 14:00:25;;;;;;;;;;;17.90;99.90;;;;;;4978841;28;19930;-92
2022/06/06 14:03:15;;;;;;;;;;;18.00;99.90;;;;;;4972990;28;19925;-91
2022/06/06 14:05:54;;;;;;;;;;;18.10;99.90;;;;;;4959875;28;19930;-91
2022/06/06 14:09:09;;;;;;;;;;;18.30;99.90;;;;;;4980741;28;19926;-91
2022/06/06 14:11:49;;;;;;;;;;;18.60;99.90;;;;;;4934925;28;19937;-88
2022/06/06 14:14:18;;;;;;;;;;;18.70;99.90;;;;;;4934806;28;19934;-89
2022/06/06 14:17:08;;;;;;;;;;;18.90;99.90;;;;;;4940592;28;19934;-89
2022/06/06 14:19:48;;;;;;;;;;;18.80;99.90;;;;;;4950672;28;19942;-86
2022/06/06 14:22:31;;;;;;;;;;;18.80;99.90;;;;;;4943287;28;19926;-87
2022/06/06 14:25:01;;;;;;;;;;;18.80;99.90;;;;;;4946288;28;19927;-87
2022/06/06 14:27:30;;;;;;;;;;;19.00;99.90;;;;;;4948110;28;19926;-89
2022/06/06 14:30:06;;;;;;;;;;;19.20;99.90;;;;;;4962864;28;20601;-87
2022/06/06 14:32:46;;;;;;;;;;;19.50;99.90;;;;;;4945971;28;19926;-86
2022/06/06 14:35:17;;;;;;;;;;;19.90;99.90;;;;;;4948168;29;19931;-87
2022/06/06 14:37:45;;;;;;;;;;;20.20;99.90;;;;;;4948229;29;20321;-85
2022/06/06 14:40:14;;;;;;;;;;;20.50;99.90;;;;;;4946487;29;19941;-85
2022/06/06 14:42:48;;;;;;;;;;;20.60;99.70;;;;;;4931052;28;20395;-85
2022/06/06 14:45:27;;;;;;;;;;;20.90;99.70;;;;;;4946935;28;19935;-84
2022/06/06 14:48:00;;;;;;;;;;;21.40;99.00;;;;;;4947107;28;19931;-85
2022/06/06 14:50:46;;;;;;;;;;;22.10;98.30;;;;;;4946151;28;20383;-85
2022/06/06 14:53:20;;;;;;;;;;;22.40;97.70;;;;;;4962564;28;19949;-84
2022/06/06 14:55:51;;;;;;;;;;;22.80;96.80;;;;;;4946835;28;19946;-85
2022/06/06 14:58:22;;;;;;;;;;;23.10;95.70;;;;;;4930398;28;19930;-84
2022/06/06 15:00:53;;;;;;;;;;;23.00;95.30;;;;;;4928188;28;19941;-85
2022/06/06 15:03:32;;;;;;;;;;;22.70;95.70;;;;;;4948589;28;19934;-83
2022/06/06 15:06:08;;;;;;;;;;;22.40;96.20;;;;;;4945440;28;19946;-86
2022/06/06 15:08:57;;;;;;;;;;;22.00;96.00;;;;;;4946267;28;20375;-83
2022/06/06 15:11:26;;;;;;;;;;;21.70;96.40;;;;;;4942866;28;20235;-82
2022/06/06 15:13:58;;;;;;;;;;;21.50;96.50;;;;;;4952957;28;19932;-83
2022/06/06 15:16:31;;;;;;;;;;;21.30;96.60;;;;;;4982115;28;19949;-83
2022/06/06 15:19:00;;;;;;;;;;;21.30;96.70;;;;;;4984739;28;21089;-82
2022/06/06 15:21:30;;;;;;;;;;;21.50;96.80;;;;;;4965872;28;19953;-85
2022/06/06 15:24:00;;;;;;;;;;;21.50;96.80;;;;;;4951907;28;19934;-86
2022/06/06 15:26:51;;;;;;;;;;;21.50;96.40;;;;;;4971146;28;19926;-85
2022/06/06 15:29:26;;;;;;;;;;;21.20;96.30;;;;;;4606845;28;10000320;-85
2022/06/06 15:32:14;;;;;;;;;;;20.90;96.80;;;;;;4971554;28;19934;-85